sensor_id;sensor_type;location;lat;lon;timestamp;P1;durP1;ratioP1;P2;durP2;ratioP2
67185;SDS011;54116;53.518;49.398;2023-05-23T00:00:45;48.58;;;14.93;;
67185;SDS011;54116;53.518;49.398;2023-05-23T00:03:12;46.10;;;14.52;;
67185;SDS011;54116;53.518;49.398;2023-05-23T00:05:38;48.63;;;13.98;;
67185;SDS011;54116;53.518;49.398;2023-05-23T00:08:04;46.45;;;15.85;;
67185;SDS011;54116;53.518;49.398;2023-05-23T00:10:30;43.67;;;13.10;;
67185;SDS011;54116;53.518;49.398;2023-05-23T00:12:56;49.50;;;14.32;;
67185;SDS011;54116;53.518;49.398;2023-05-23T00:15:22;43.97;;;14.35;;
67185;SDS011;54116;53.518;49.398;2023-05-23T00:17:48;40.65;;;12.35;;
67185;SDS011;54116;53.518;49.398;2023-05-23T00:20:15;40.60;;;12.68;;
67185;SDS011;54116;53.518;49.398;2023-05-23T00:22:41;33.70;;;12.00;;
67185;SDS011;54116;53.518;49.398;2023-05-23T00:25:08;36.00;;;11.05;;
67185;SDS011;54116;53.518;49.398;2023-05-23T00:27:35;36.88;;;11.32;;
67185;SDS011;54116;53.518;49.398;2023-05-23T00:30:01;36.28;;;11.18;;
67185;SDS011;54116;53.518;49.398;2023-05-23T00:32:27;38.35;;;11.25;;
67185;SDS011;54116;53.518;49.398;2023-05-23T00:34:54;35.72;;;11.15;;
67185;SDS011;54116;53.518;49.398;2023-05-23T00:37:20;33.00;;;10.90;;
67185;SDS011;54116;53.518;49.398;2023-05-23T00:39:47;31.42;;;11.85;;
67185;SDS011;54116;53.518;49.398;2023-05-23T00:42:13;29.83;;;10.25;;
67185;SDS011;54116;53.518;49.398;2023-05-23T00:44:39;35.65;;;10.73;;
67185;SDS011;54116;53.518;49.398;2023-05-23T00:47:06;28.58;;;9.85;;
67185;SDS011;54116;53.518;49.398;2023-05-23T00:49:33;33.28;;;11.00;;
67185;SDS011;54116;53.518;49.398;2023-05-23T00:52:00;28.10;;;10.43;;
67185;SDS011;54116;53.518;49.398;2023-05-23T00:54:29;30.15;;;11.48;;
67185;SDS011;54116;53.518;49.398;2023-05-23T00:56:55;27.25;;;10.07;;
67185;SDS011;54116;53.518;49.398;2023-05-23T00:59:25;29.17;;;9.63;;
67185;SDS011;54116;53.518;49.398;2023-05-23T01:01:52;33.30;;;10.70;;
67185;SDS011;54116;53.518;49.398;2023-05-23T01:04:21;28.33;;;10.70;;
67185;SDS011;54116;53.518;49.398;2023-05-23T01:06:53;29.42;;;10.10;;
67185;SDS011;54116;53.518;49.398;2023-05-23T01:09:20;29.95;;;10.52;;
67185;SDS011;54116;53.518;49.398;2023-05-23T01:15:04;20.27;;;8.98;;
67185;SDS011;54116;53.518;49.398;2023-05-23T01:20:21;26.50;;;10.50;;
67185;SDS011;54116;53.518;49.398;2023-05-23T01:28:02;23.63;;;10.32;;
67185;SDS011;54116;53.518;49.398;2023-05-23T01:30:36;24.23;;;9.88;;
67185;SDS011;54116;53.518;49.398;2023-05-23T01:33:05;25.98;;;9.63;;
67185;SDS011;54116;53.518;49.398;2023-05-23T01:35:33;26.98;;;9.98;;
67185;SDS011;54116;53.518;49.398;2023-05-23T01:38:01;25.60;;;9.85;;
67185;SDS011;54116;53.518;49.398;2023-05-23T01:40:27;26.85;;;9.77;;
67185;SDS011;54116;53.518;49.398;2023-05-23T01:42:54;27.45;;;9.45;;
67185;SDS011;54116;53.518;49.398;2023-05-23T01:45:25;23.23;;;9.85;;
67185;SDS011;54116;53.518;49.398;2023-05-23T01:47:52;19.23;;;9.38;;
67185;SDS011;54116;53.518;49.398;2023-05-23T01:50:18;23.02;;;9.48;;
67185;SDS011;54116;53.518;49.398;2023-05-23T01:52:45;24.08;;;9.82;;
67185;SDS011;54116;53.518;49.398;2023-05-23T01:55:12;19.75;;;8.15;;
67185;SDS011;54116;53.518;49.398;2023-05-23T01:57:43;25.63;;;9.40;;
67185;SDS011;54116;53.518;49.398;2023-05-23T02:00:14;18.58;;;8.60;;
67185;SDS011;54116;53.518;49.398;2023-05-23T02:02:40;22.50;;;8.38;;
67185;SDS011;54116;53.518;49.398;2023-05-23T02:05:06;21.50;;;9.15;;
67185;SDS011;54116;53.518;49.398;2023-05-23T02:07:34;21.92;;;8.75;;
67185;SDS011;54116;53.518;49.398;2023-05-23T02:10:00;21.40;;;8.38;;
67185;SDS011;54116;53.518;49.398;2023-05-23T02:12:26;18.48;;;7.15;;
67185;SDS011;54116;53.518;49.398;2023-05-23T02:14:52;14.18;;;8.30;;
67185;SDS011;54116;53.518;49.398;2023-05-23T02:17:19;21.30;;;8.88;;
67185;SDS011;54116;53.518;49.398;2023-05-23T02:19:46;22.08;;;7.95;;
67185;SDS011;54116;53.518;49.398;2023-05-23T02:22:13;18.40;;;8.20;;
67185;SDS011;54116;53.518;49.398;2023-05-23T02:24:39;20.75;;;9.05;;
67185;SDS011;54116;53.518;49.398;2023-05-23T02:27:05;19.00;;;8.30;;
67185;SDS011;54116;53.518;49.398;2023-05-23T02:29:31;18.10;;;7.95;;
67185;SDS011;54116;53.518;49.398;2023-05-23T02:31:57;17.48;;;7.63;;
67185;SDS011;54116;53.518;49.398;2023-05-23T02:34:23;16.00;;;8.10;;
67185;SDS011;54116;53.518;49.398;2023-05-23T02:36:50;16.75;;;8.23;;
67185;SDS011;54116;53.518;49.398;2023-05-23T02:39:16;21.63;;;9.18;;
67185;SDS011;54116;53.518;49.398;2023-05-23T02:41:42;17.15;;;8.73;;
67185;SDS011;54116;53.518;49.398;2023-05-23T02:44:08;18.92;;;8.55;;
67185;SDS011;54116;53.518;49.398;2023-05-23T02:46:34;14.63;;;8.23;;
67185;SDS011;54116;53.518;49.398;2023-05-23T02:49:00;16.25;;;8.50;;
67185;SDS011;54116;53.518;49.398;2023-05-23T02:51:26;18.63;;;7.05;;
67185;SDS011;54116;53.518;49.398;2023-05-23T02:53:52;14.25;;;7.13;;
67185;SDS011;54116;53.518;49.398;2023-05-23T02:56:19;20.05;;;7.45;;
67185;SDS011;54116;53.518;49.398;2023-05-23T02:58:46;17.40;;;8.77;;
67185;SDS011;54116;53.518;49.398;2023-05-23T03:01:12;15.50;;;7.43;;
67185;SDS011;54116;53.518;49.398;2023-05-23T03:03:38;16.10;;;7.53;;
67185;SDS011;54116;53.518;49.398;2023-05-23T03:06:06;21.55;;;8.85;;
67185;SDS011;54116;53.518;49.398;2023-05-23T03:08:35;14.50;;;7.90;;
67185;SDS011;54116;53.518;49.398;2023-05-23T03:11:01;16.23;;;8.23;;
67185;SDS011;54116;53.518;49.398;2023-05-23T03:13:27;14.70;;;7.53;;
67185;SDS011;54116;53.518;49.398;2023-05-23T03:15:53;17.17;;;7.80;;
67185;SDS011;54116;53.518;49.398;2023-05-23T03:18:19;18.23;;;8.70;;
67185;SDS011;54116;53.518;49.398;2023-05-23T03:20:45;16.48;;;7.00;;
67185;SDS011;54116;53.518;49.398;2023-05-23T03:23:11;13.75;;;7.30;;
67185;SDS011;54116;53.518;49.398;2023-05-23T03:25:37;22.13;;;6.78;;
67185;SDS011;54116;53.518;49.398;2023-05-23T03:28:03;15.02;;;6.28;;
67185;SDS011;54116;53.518;49.398;2023-05-23T03:30:29;16.60;;;6.80;;
67185;SDS011;54116;53.518;49.398;2023-05-23T03:32:56;16.08;;;6.90;;
67185;SDS011;54116;53.518;49.398;2023-05-23T03:35:22;18.88;;;7.10;;
67185;SDS011;54116;53.518;49.398;2023-05-23T03:37:48;13.65;;;6.80;;
67185;SDS011;54116;53.518;49.398;2023-05-23T03:40:14;19.58;;;6.75;;
67185;SDS011;54116;53.518;49.398;2023-05-23T03:42:40;15.02;;;6.43;;
67185;SDS011;54116;53.518;49.398;2023-05-23T03:45:06;13.77;;;6.97;;
67185;SDS011;54116;53.518;49.398;2023-05-23T03:47:32;12.55;;;6.85;;
67185;SDS011;54116;53.518;49.398;2023-05-23T03:49:58;12.27;;;6.35;;
67185;SDS011;54116;53.518;49.398;2023-05-23T03:52:25;17.83;;;6.95;;
67185;SDS011;54116;53.518;49.398;2023-05-23T03:54:51;15.48;;;6.65;;
67185;SDS011;54116;53.518;49.398;2023-05-23T03:57:17;14.55;;;6.43;;
67185;SDS011;54116;53.518;49.398;2023-05-23T03:59:43;15.95;;;7.00;;
67185;SDS011;54116;53.518;49.398;2023-05-23T04:02:09;15.73;;;6.63;;
67185;SDS011;54116;53.518;49.398;2023-05-23T04:04:35;17.17;;;7.40;;
67185;SDS011;54116;53.518;49.398;2023-05-23T04:07:01;14.32;;;6.20;;
67185;SDS011;54116;53.518;49.398;2023-05-23T04:09:30;18.25;;;7.22;;
67185;SDS011;54116;53.518;49.398;2023-05-23T04:11:56;13.85;;;7.00;;
67185;SDS011;54116;53.518;49.398;2023-05-23T04:14:22;11.75;;;6.18;;
67185;SDS011;54116;53.518;49.398;2023-05-23T04:16:48;13.88;;;6.00;;
67185;SDS011;54116;53.518;49.398;2023-05-23T04:19:14;13.68;;;6.28;;
67185;SDS011;54116;53.518;49.398;2023-05-23T04:21:41;12.77;;;6.22;;
67185;SDS011;54116;53.518;49.398;2023-05-23T04:24:07;11.75;;;5.90;;
67185;SDS011;54116;53.518;49.398;2023-05-23T04:26:33;13.23;;;6.25;;
67185;SDS011;54116;53.518;49.398;2023-05-23T04:29:01;8.77;;;5.60;;
67185;SDS011;54116;53.518;49.398;2023-05-23T04:31:30;12.88;;;5.53;;
67185;SDS011;54116;53.518;49.398;2023-05-23T04:33:58;10.30;;;5.68;;
67185;SDS011;54116;53.518;49.398;2023-05-23T04:36:24;11.85;;;5.53;;
67185;SDS011;54116;53.518;49.398;2023-05-23T04:38:50;10.95;;;6.47;;
67185;SDS011;54116;53.518;49.398;2023-05-23T04:41:16;15.00;;;5.53;;
67185;SDS011;54116;53.518;49.398;2023-05-23T04:46:20;10.13;;;5.30;;
67185;SDS011;54116;53.518;49.398;2023-05-23T04:48:50;10.35;;;5.25;;
67185;SDS011;54116;53.518;49.398;2023-05-23T04:51:18;10.52;;;4.93;;
67185;SDS011;54116;53.518;49.398;2023-05-23T04:53:46;12.05;;;4.88;;
67185;SDS011;54116;53.518;49.398;2023-05-23T04:56:14;15.55;;;5.55;;
67185;SDS011;54116;53.518;49.398;2023-05-23T04:58:42;9.60;;;4.95;;
67185;SDS011;54116;53.518;49.398;2023-05-23T05:01:10;9.70;;;5.28;;
67185;SDS011;54116;53.518;49.398;2023-05-23T05:03:37;8.07;;;5.15;;
67185;SDS011;54116;53.518;49.398;2023-05-23T05:06:03;16.70;;;4.97;;
67185;SDS011;54116;53.518;49.398;2023-05-23T05:08:31;11.80;;;4.70;;
67185;SDS011;54116;53.518;49.398;2023-05-23T05:10:57;11.45;;;4.90;;
67185;SDS011;54116;53.518;49.398;2023-05-23T05:13:23;10.52;;;4.90;;
67185;SDS011;54116;53.518;49.398;2023-05-23T05:15:50;18.13;;;10.57;;
67185;SDS011;54116;53.518;49.398;2023-05-23T05:18:17;9.95;;;5.30;;
67185;SDS011;54116;53.518;49.398;2023-05-23T05:20:43;9.20;;;4.30;;
67185;SDS011;54116;53.518;49.398;2023-05-23T05:23:10;8.23;;;4.13;;
67185;SDS011;54116;53.518;49.398;2023-05-23T05:25:36;12.10;;;4.25;;
67185;SDS011;54116;53.518;49.398;2023-05-23T05:28:03;10.57;;;4.45;;
67185;SDS011;54116;53.518;49.398;2023-05-23T05:30:31;9.23;;;4.50;;
67185;SDS011;54116;53.518;49.398;2023-05-23T05:33:00;12.10;;;4.55;;
67185;SDS011;54116;53.518;49.398;2023-05-23T05:35:32;8.75;;;4.13;;
67185;SDS011;54116;53.518;49.398;2023-05-23T05:37:59;9.90;;;3.72;;
67185;SDS011;54116;53.518;49.398;2023-05-23T05:40:27;7.78;;;3.78;;
67185;SDS011;54116;53.518;49.398;2023-05-23T05:42:53;8.73;;;4.03;;
67185;SDS011;54116;53.518;49.398;2023-05-23T05:45:19;10.20;;;4.30;;
67185;SDS011;54116;53.518;49.398;2023-05-23T05:47:46;7.15;;;3.45;;
67185;SDS011;54116;53.518;49.398;2023-05-23T05:50:12;8.15;;;3.78;;
67185;SDS011;54116;53.518;49.398;2023-05-23T05:52:40;9.27;;;3.83;;
67185;SDS011;54116;53.518;49.398;2023-05-23T05:55:07;9.77;;;3.67;;
67185;SDS011;54116;53.518;49.398;2023-05-23T05:57:39;9.30;;;3.72;;
67185;SDS011;54116;53.518;49.398;2023-05-23T06:00:06;7.85;;;3.60;;
67185;SDS011;54116;53.518;49.398;2023-05-23T06:02:38;9.85;;;3.72;;
67185;SDS011;54116;53.518;49.398;2023-05-23T06:05:08;7.72;;;3.85;;
67185;SDS011;54116;53.518;49.398;2023-05-23T06:07:37;7.00;;;3.47;;
67185;SDS011;54116;53.518;49.398;2023-05-23T06:10:23;11.38;;;3.20;;
67185;SDS011;54116;53.518;49.398;2023-05-23T06:12:50;9.20;;;3.75;;
67185;SDS011;54116;53.518;49.398;2023-05-23T06:15:16;56.08;;;12.70;;
67185;SDS011;54116;53.518;49.398;2023-05-23T06:17:43;7.97;;;3.55;;
67185;SDS011;54116;53.518;49.398;2023-05-23T06:20:09;9.07;;;3.72;;
67185;SDS011;54116;53.518;49.398;2023-05-23T06:22:36;9.48;;;3.78;;
67185;SDS011;54116;53.518;49.398;2023-05-23T06:25:03;8.52;;;3.13;;
67185;SDS011;54116;53.518;49.398;2023-05-23T06:27:30;9.60;;;3.58;;
67185;SDS011;54116;53.518;49.398;2023-05-23T06:30:15;8.40;;;3.30;;
67185;SDS011;54116;53.518;49.398;2023-05-23T06:32:41;10.25;;;3.55;;
67185;SDS011;54116;53.518;49.398;2023-05-23T06:35:08;13.82;;;3.85;;
67185;SDS011;54116;53.518;49.398;2023-05-23T06:37:34;25.05;;;4.20;;
67185;SDS011;54116;53.518;49.398;2023-05-23T06:40:01;5.55;;;3.00;;
67185;SDS011;54116;53.518;49.398;2023-05-23T06:42:27;13.75;;;3.65;;
67185;SDS011;54116;53.518;49.398;2023-05-23T06:47:39;9.15;;;3.25;;
67185;SDS011;54116;53.518;49.398;2023-05-23T06:50:08;5.45;;;2.92;;
67185;SDS011;54116;53.518;49.398;2023-05-23T06:52:35;8.15;;;3.47;;
67185;SDS011;54116;53.518;49.398;2023-05-23T06:55:20;9.45;;;3.42;;
67185;SDS011;54116;53.518;49.398;2023-05-23T06:57:47;8.00;;;3.60;;
67185;SDS011;54116;53.518;49.398;2023-05-23T07:00:18;11.30;;;3.60;;
67185;SDS011;54116;53.518;49.398;2023-05-23T07:02:44;7.82;;;2.88;;
67185;SDS011;54116;53.518;49.398;2023-05-23T07:05:13;11.30;;;3.08;;
67185;SDS011;54116;53.518;49.398;2023-05-23T07:07:43;10.38;;;2.78;;
67185;SDS011;54116;53.518;49.398;2023-05-23T07:10:09;11.20;;;3.50;;
67185;SDS011;54116;53.518;49.398;2023-05-23T07:12:36;9.13;;;3.05;;
67185;SDS011;54116;53.518;49.398;2023-05-23T07:15:02;11.23;;;3.42;;
67185;SDS011;54116;53.518;49.398;2023-05-23T07:17:29;7.00;;;2.90;;
67185;SDS011;54116;53.518;49.398;2023-05-23T07:19:55;8.15;;;3.35;;
67185;SDS011;54116;53.518;49.398;2023-05-23T07:22:22;8.50;;;3.50;;
67185;SDS011;54116;53.518;49.398;2023-05-23T07:24:48;7.40;;;2.92;;
67185;SDS011;54116;53.518;49.398;2023-05-23T07:27:14;8.77;;;3.17;;
67185;SDS011;54116;53.518;49.398;2023-05-23T07:30:00;7.15;;;2.92;;
67185;SDS011;54116;53.518;49.398;2023-05-23T07:32:27;8.60;;;2.70;;
67185;SDS011;54116;53.518;49.398;2023-05-23T07:34:54;8.70;;;3.20;;
67185;SDS011;54116;53.518;49.398;2023-05-23T07:37:21;7.38;;;2.50;;
67185;SDS011;54116;53.518;49.398;2023-05-23T07:39:47;9.65;;;2.65;;
67185;SDS011;54116;53.518;49.398;2023-05-23T07:42:13;7.72;;;2.67;;
67185;SDS011;54116;53.518;49.398;2023-05-23T07:44:40;10.30;;;3.10;;
67185;SDS011;54116;53.518;49.398;2023-05-23T07:47:06;14.90;;;3.85;;
67185;SDS011;54116;53.518;49.398;2023-05-23T07:49:33;7.00;;;2.80;;
67185;SDS011;54116;53.518;49.398;2023-05-23T07:52:00;5.90;;;3.38;;
67185;SDS011;54116;53.518;49.398;2023-05-23T07:54:26;10.52;;;3.25;;
67185;SDS011;54116;53.518;49.398;2023-05-23T07:56:54;7.50;;;3.00;;
67185;SDS011;54116;53.518;49.398;2023-05-23T07:59:21;9.05;;;3.03;;
67185;SDS011;54116;53.518;49.398;2023-05-23T08:01:49;9.05;;;2.72;;
67185;SDS011;54116;53.518;49.398;2023-05-23T08:04:17;7.55;;;2.67;;
67185;SDS011;54116;53.518;49.398;2023-05-23T08:06:43;13.65;;;2.78;;
67185;SDS011;54116;53.518;49.398;2023-05-23T08:09:12;8.88;;;2.55;;
67185;SDS011;54116;53.518;49.398;2023-05-23T08:11:39;7.25;;;2.55;;
67185;SDS011;54116;53.518;49.398;2023-05-23T08:14:05;6.22;;;2.75;;
67185;SDS011;54116;53.518;49.398;2023-05-23T08:16:32;6.25;;;2.65;;
67185;SDS011;54116;53.518;49.398;2023-05-23T08:21:45;7.22;;;2.67;;
67185;SDS011;54116;53.518;49.398;2023-05-23T08:24:11;7.30;;;2.75;;
67185;SDS011;54116;53.518;49.398;2023-05-23T08:26:38;9.02;;;2.63;;
67185;SDS011;54116;53.518;49.398;2023-05-23T08:29:04;7.43;;;2.78;;
67185;SDS011;54116;53.518;49.398;2023-05-23T08:31:31;12.40;;;3.00;;
67185;SDS011;54116;53.518;49.398;2023-05-23T08:33:57;7.90;;;2.35;;
67185;SDS011;54116;53.518;49.398;2023-05-23T08:36:24;11.57;;;2.67;;
67185;SDS011;54116;53.518;49.398;2023-05-23T08:38:50;6.57;;;2.42;;
67185;SDS011;54116;53.518;49.398;2023-05-23T08:41:20;6.38;;;2.40;;
67185;SDS011;54116;53.518;49.398;2023-05-23T08:43:48;11.60;;;2.67;;
67185;SDS011;54116;53.518;49.398;2023-05-23T08:46:15;6.40;;;2.10;;
67185;SDS011;54116;53.518;49.398;2023-05-23T08:48:42;7.55;;;2.10;;
67185;SDS011;54116;53.518;49.398;2023-05-23T08:51:12;28.02;;;4.25;;
67185;SDS011;54116;53.518;49.398;2023-05-23T08:53:41;7.55;;;3.63;;
67185;SDS011;54116;53.518;49.398;2023-05-23T08:56:11;7.22;;;2.70;;
67185;SDS011;54116;53.518;49.398;2023-05-23T08:58:40;4.75;;;2.17;;
67185;SDS011;54116;53.518;49.398;2023-05-23T09:01:08;7.00;;;2.35;;
67185;SDS011;54116;53.518;49.398;2023-05-23T09:03:36;5.90;;;2.08;;
67185;SDS011;54116;53.518;49.398;2023-05-23T09:06:03;10.10;;;2.85;;
67185;SDS011;54116;53.518;49.398;2023-05-23T09:08:32;6.80;;;2.38;;
67185;SDS011;54116;53.518;49.398;2023-05-23T09:10:59;9.25;;;2.35;;
67185;SDS011;54116;53.518;49.398;2023-05-23T09:13:29;7.47;;;2.30;;
67185;SDS011;54116;53.518;49.398;2023-05-23T09:16:14;7.07;;;2.35;;
67185;SDS011;54116;53.518;49.398;2023-05-23T09:18:43;8.15;;;2.20;;
67185;SDS011;54116;53.518;49.398;2023-05-23T09:21:10;5.72;;;2.20;;
67185;SDS011;54116;53.518;49.398;2023-05-23T09:23:37;7.80;;;1.73;;
67185;SDS011;54116;53.518;49.398;2023-05-23T09:26:08;3.53;;;1.88;;
67185;SDS011;54116;53.518;49.398;2023-05-23T09:28:36;6.53;;;2.25;;
67185;SDS011;54116;53.518;49.398;2023-05-23T09:31:04;7.85;;;2.42;;
67185;SDS011;54116;53.518;49.398;2023-05-23T09:33:48;5.68;;;2.25;;
67185;SDS011;54116;53.518;49.398;2023-05-23T09:36:15;7.97;;;2.42;;
67185;SDS011;54116;53.518;49.398;2023-05-23T09:38:43;6.35;;;2.10;;
67185;SDS011;54116;53.518;49.398;2023-05-23T09:43:59;6.47;;;1.95;;
67185;SDS011;54116;53.518;49.398;2023-05-23T09:46:33;9.73;;;2.38;;
67185;SDS011;54116;53.518;49.398;2023-05-23T09:49:01;7.07;;;2.17;;
67185;SDS011;54116;53.518;49.398;2023-05-23T09:51:28;8.38;;;2.53;;
67185;SDS011;54116;53.518;49.398;2023-05-23T09:53:55;6.45;;;2.33;;
67185;SDS011;54116;53.518;49.398;2023-05-23T09:56:40;5.50;;;2.50;;
67185;SDS011;54116;53.518;49.398;2023-05-23T09:59:09;6.30;;;2.30;;
67185;SDS011;54116;53.518;49.398;2023-05-23T10:01:39;4.60;;;2.20;;
67185;SDS011;54116;53.518;49.398;2023-05-23T10:06:37;27.02;;;3.75;;
67185;SDS011;54116;53.518;49.398;2023-05-23T10:09:11;6.90;;;2.33;;
67185;SDS011;54116;53.518;49.398;2023-05-23T10:14:45;5.75;;;2.83;;
67185;SDS011;54116;53.518;49.398;2023-05-23T10:17:31;9.32;;;2.47;;
67185;SDS011;54116;53.518;49.398;2023-05-23T10:20:12;5.10;;;1.70;;
67185;SDS011;54116;53.518;49.398;2023-05-23T10:22:42;8.10;;;2.45;;
67185;SDS011;54116;53.518;49.398;2023-05-23T10:25:10;7.40;;;2.45;;
67185;SDS011;54116;53.518;49.398;2023-05-23T10:27:37;7.95;;;2.38;;
67185;SDS011;54116;53.518;49.398;2023-05-23T10:30:05;5.97;;;1.60;;
67185;SDS011;54116;53.518;49.398;2023-05-23T10:32:33;7.40;;;2.40;;
67185;SDS011;54116;53.518;49.398;2023-05-23T10:35:03;4.60;;;2.05;;
67185;SDS011;54116;53.518;49.398;2023-05-23T10:37:41;5.03;;;2.40;;
67185;SDS011;54116;53.518;49.398;2023-05-23T10:42:53;5.07;;;2.15;;
67185;SDS011;54116;53.518;49.398;2023-05-23T10:45:24;11.43;;;2.13;;
67185;SDS011;54116;53.518;49.398;2023-05-23T10:47:51;11.38;;;2.75;;
67185;SDS011;54116;53.518;49.398;2023-05-23T10:53:01;8.65;;;2.40;;
67185;SDS011;54116;53.518;49.398;2023-05-23T10:55:35;5.78;;;2.38;;
67185;SDS011;54116;53.518;49.398;2023-05-23T10:58:09;7.10;;;2.70;;
67185;SDS011;54116;53.518;49.398;2023-05-23T11:00:36;9.10;;;2.10;;
67185;SDS011;54116;53.518;49.398;2023-05-23T11:03:03;6.35;;;2.30;;
67185;SDS011;54116;53.518;49.398;2023-05-23T11:05:33;5.47;;;2.50;;
67185;SDS011;54116;53.518;49.398;2023-05-23T11:08:19;8.38;;;2.80;;
67185;SDS011;54116;53.518;49.398;2023-05-23T11:10:52;6.93;;;2.60;;
67185;SDS011;54116;53.518;49.398;2023-05-23T11:13:52;5.35;;;2.38;;
67185;SDS011;54116;53.518;49.398;2023-05-23T11:22:00;5.85;;;2.40;;
67185;SDS011;54116;53.518;49.398;2023-05-23T11:27:17;28.00;;;4.07;;
67185;SDS011;54116;53.518;49.398;2023-05-23T11:30:06;9.55;;;2.72;;
67185;SDS011;54116;53.518;49.398;2023-05-23T11:32:41;5.50;;;1.80;;
67185;SDS011;54116;53.518;49.398;2023-05-23T11:35:26;9.38;;;2.17;;
67185;SDS011;54116;53.518;49.398;2023-05-23T11:37:55;6.90;;;2.10;;
67185;SDS011;54116;53.518;49.398;2023-05-23T11:40:26;6.38;;;2.53;;
67185;SDS011;54116;53.518;49.398;2023-05-23T11:43:02;13.68;;;3.83;;
67185;SDS011;54116;53.518;49.398;2023-05-23T11:45:31;11.93;;;3.33;;
67185;SDS011;54116;53.518;49.398;2023-05-23T11:48:03;6.72;;;2.95;;
67185;SDS011;54116;53.518;49.398;2023-05-23T11:50:31;6.43;;;2.20;;
67185;SDS011;54116;53.518;49.398;2023-05-23T11:52:57;6.70;;;2.72;;
67185;SDS011;54116;53.518;49.398;2023-05-23T11:55:24;8.70;;;3.00;;
67185;SDS011;54116;53.518;49.398;2023-05-23T11:57:54;7.68;;;2.63;;
67185;SDS011;54116;53.518;49.398;2023-05-23T12:00:21;7.05;;;2.22;;
67185;SDS011;54116;53.518;49.398;2023-05-23T12:02:47;5.15;;;2.35;;
67185;SDS011;54116;53.518;49.398;2023-05-23T12:05:15;5.65;;;2.30;;
67185;SDS011;54116;53.518;49.398;2023-05-23T12:07:43;9.65;;;2.67;;
67185;SDS011;54116;53.518;49.398;2023-05-23T12:10:13;6.85;;;2.47;;
67185;SDS011;54116;53.518;49.398;2023-05-23T12:12:47;6.95;;;2.53;;
67185;SDS011;54116;53.518;49.398;2023-05-23T12:15:13;4.85;;;2.20;;
67185;SDS011;54116;53.518;49.398;2023-05-23T12:17:44;5.93;;;2.25;;
67185;SDS011;54116;53.518;49.398;2023-05-23T12:20:29;5.53;;;2.10;;
67185;SDS011;54116;53.518;49.398;2023-05-23T12:23:02;7.03;;;2.58;;
67185;SDS011;54116;53.518;49.398;2023-05-23T12:25:38;8.10;;;1.98;;
67185;SDS011;54116;53.518;49.398;2023-05-23T12:28:06;5.80;;;2.15;;
67185;SDS011;54116;53.518;49.398;2023-05-23T12:30:42;7.75;;;2.38;;
67185;SDS011;54116;53.518;49.398;2023-05-23T12:33:09;7.30;;;2.25;;
67185;SDS011;54116;53.518;49.398;2023-05-23T12:35:36;6.25;;;2.90;;
67185;SDS011;54116;53.518;49.398;2023-05-23T12:38:06;6.30;;;2.85;;
67185;SDS011;54116;53.518;49.398;2023-05-23T12:41:14;9.00;;;3.00;;
67185;SDS011;54116;53.518;49.398;2023-05-23T12:43:49;9.15;;;3.28;;
67185;SDS011;54116;53.518;49.398;2023-05-23T12:46:27;7.63;;;3.20;;
67185;SDS011;54116;53.518;49.398;2023-05-23T12:48:55;8.60;;;2.95;;
67185;SDS011;54116;53.518;49.398;2023-05-23T12:51:21;11.32;;;3.20;;
67185;SDS011;54116;53.518;49.398;2023-05-23T12:53:48;7.40;;;2.40;;
67185;SDS011;54116;53.518;49.398;2023-05-23T12:56:14;5.63;;;2.20;;
67185;SDS011;54116;53.518;49.398;2023-05-23T12:58:41;5.55;;;2.17;;
67185;SDS011;54116;53.518;49.398;2023-05-23T13:01:08;5.80;;;2.08;;
67185;SDS011;54116;53.518;49.398;2023-05-23T13:03:34;8.90;;;2.50;;
67185;SDS011;54116;53.518;49.398;2023-05-23T13:06:01;5.45;;;2.13;;
67185;SDS011;54116;53.518;49.398;2023-05-23T13:08:46;5.97;;;2.30;;
67185;SDS011;54116;53.518;49.398;2023-05-23T13:11:14;5.70;;;2.42;;
67185;SDS011;54116;53.518;49.398;2023-05-23T13:13:41;7.60;;;2.53;;
67185;SDS011;54116;53.518;49.398;2023-05-23T13:16:08;9.00;;;2.22;;
67185;SDS011;54116;53.518;49.398;2023-05-23T13:18:35;7.10;;;2.22;;
67185;SDS011;54116;53.518;49.398;2023-05-23T13:21:01;7.80;;;2.47;;
67185;SDS011;54116;53.518;49.398;2023-05-23T13:26:13;4.35;;;2.13;;
67185;SDS011;54116;53.518;49.398;2023-05-23T13:28:40;5.57;;;2.25;;
67185;SDS011;54116;53.518;49.398;2023-05-23T13:31:06;4.90;;;2.00;;
67185;SDS011;54116;53.518;49.398;2023-05-23T13:33:32;8.40;;;2.50;;
67185;SDS011;54116;53.518;49.398;2023-05-23T13:35:59;8.13;;;2.35;;
67185;SDS011;54116;53.518;49.398;2023-05-23T13:38:25;9.25;;;2.40;;
67185;SDS011;54116;53.518;49.398;2023-05-23T13:40:52;7.65;;;2.63;;
67185;SDS011;54116;53.518;49.398;2023-05-23T13:43:20;6.57;;;2.42;;
67185;SDS011;54116;53.518;49.398;2023-05-23T13:45:46;8.45;;;2.80;;
67185;SDS011;54116;53.518;49.398;2023-05-23T13:48:13;6.53;;;2.17;;
67185;SDS011;54116;53.518;49.398;2023-05-23T13:50:39;11.13;;;2.70;;
67185;SDS011;54116;53.518;49.398;2023-05-23T13:53:06;6.10;;;2.80;;
67185;SDS011;54116;53.518;49.398;2023-05-23T13:55:39;7.00;;;2.42;;
67185;SDS011;54116;53.518;49.398;2023-05-23T13:58:06;8.23;;;2.80;;
67185;SDS011;54116;53.518;49.398;2023-05-23T14:00:32;6.78;;;2.03;;
67185;SDS011;54116;53.518;49.398;2023-05-23T14:02:58;13.45;;;2.67;;
67185;SDS011;54116;53.518;49.398;2023-05-23T14:05:44;5.50;;;2.45;;
67185;SDS011;54116;53.518;49.398;2023-05-23T14:08:10;7.32;;;2.20;;
67185;SDS011;54116;53.518;49.398;2023-05-23T14:10:38;7.63;;;2.55;;
67185;SDS011;54116;53.518;49.398;2023-05-23T14:13:06;8.10;;;2.90;;
67185;SDS011;54116;53.518;49.398;2023-05-23T14:15:32;8.98;;;2.85;;
67185;SDS011;54116;53.518;49.398;2023-05-23T14:18:00;6.50;;;2.40;;
67185;SDS011;54116;53.518;49.398;2023-05-23T14:20:26;5.55;;;1.90;;
67185;SDS011;54116;53.518;49.398;2023-05-23T14:22:54;7.60;;;2.13;;
67185;SDS011;54116;53.518;49.398;2023-05-23T14:25:38;11.10;;;3.33;;
67185;SDS011;54116;53.518;49.398;2023-05-23T14:28:05;5.95;;;2.58;;
67185;SDS011;54116;53.518;49.398;2023-05-23T14:30:31;8.63;;;2.03;;
67185;SDS011;54116;53.518;49.398;2023-05-23T14:32:57;7.88;;;3.00;;
67185;SDS011;54116;53.518;49.398;2023-05-23T14:35:24;6.15;;;2.80;;
67185;SDS011;54116;53.518;49.398;2023-05-23T14:37:50;8.18;;;2.55;;
67185;SDS011;54116;53.518;49.398;2023-05-23T14:40:18;6.63;;;2.33;;
67185;SDS011;54116;53.518;49.398;2023-05-23T14:42:44;7.88;;;2.60;;
67185;SDS011;54116;53.518;49.398;2023-05-23T14:45:11;8.30;;;2.95;;
67185;SDS011;54116;53.518;49.398;2023-05-23T14:47:37;8.52;;;2.40;;
67185;SDS011;54116;53.518;49.398;2023-05-23T14:50:03;7.25;;;2.30;;
67185;SDS011;54116;53.518;49.398;2023-05-23T14:52:30;7.55;;;2.35;;
67185;SDS011;54116;53.518;49.398;2023-05-23T14:54:57;9.13;;;2.55;;
67185;SDS011;54116;53.518;49.398;2023-05-23T14:57:23;8.43;;;2.60;;
67185;SDS011;54116;53.518;49.398;2023-05-23T14:59:49;6.38;;;2.60;;
67185;SDS011;54116;53.518;49.398;2023-05-23T15:02:34;9.80;;;2.50;;
67185;SDS011;54116;53.518;49.398;2023-05-23T15:05:01;5.45;;;2.42;;
67185;SDS011;54116;53.518;49.398;2023-05-23T15:07:28;7.35;;;2.60;;
67185;SDS011;54116;53.518;49.398;2023-05-23T15:09:54;8.35;;;2.50;;
67185;SDS011;54116;53.518;49.398;2023-05-23T15:12:21;8.30;;;2.63;;
67185;SDS011;54116;53.518;49.398;2023-05-23T15:15:06;10.57;;;2.50;;
67185;SDS011;54116;53.518;49.398;2023-05-23T15:17:33;8.13;;;2.70;;
67185;SDS011;54116;53.518;49.398;2023-05-23T15:20:00;9.27;;;3.15;;